Aérodrome :
LOGIN :

S'inscrire | Disclaimer

   EN    FR    IT 

 










Légende :    VFR   VFR Marginal   IFR   IFR Intensif   IFR Très Intensif
Visi : 
Plafond : 
>= 8 km
>= 3000ft
5 à 8 km
1000 à 3000 ft
1500m à 5 km
500 à 1000 ft
800 à 1500m
200 à 500 ft
< 800m
< 200 ft
Symboles :   Orages  Brouillard  Fortes neiges  Fortes précipitations  Vent > 20 kt
SIGMETs :   Divers  Orages  Givrage  Turbulence  Onde Orograph.  Cendres Volcan.







- Altitude de l'aérodrome : 616 ft
- Code IATA : PUF
- Voir les cartes d'approche


LFBP - Pau

DERNIER METAR :
  • 212330Z AUTO 23008KT 5000 DZ BR BKN005 OVC009 12/11 Q1028 TEMPO NSW

METARs EXPIRÉS :
  • 212300Z AUTO 24007KT 4500 -DZ BR OVC004 12/11 Q1028 TEMPO 2000 -RA
  • 212230Z AUTO 25008KT 4200 DZ BR OVC004 12/12 Q1028 TEMPO 2000 -RA
  • 212200Z AUTO 25009KT 5000 -DZ BR OVC004 12/12 Q1028 TEMPO 2000 -RA
  • 212130Z AUTO 25008KT 5000 -DZ BR BKN004 BKN008 OVC016 12/11 Q1028 TEMPO 2000 -RA
  • 212100Z AUTO 24009KT 4100 -DZ BR BKN004 OVC009 12/11 Q1028 TEMPO 2000 -RA

TAF TAF LFBP
Valide du 22 à 00h jusqu'au 23 à 00h UTC


212300Z 2200/2224 26010KT 9999 BKN020
PROB40
TEMPO 2200/2206 4000 -RA OVC005
TEMPO 2216/2220 3000 RA OVC005
Pas de NOTAMs connus pour ce terrain.
2 SIGMETs publiés pour la FIR Bordeaux (LFBB) :
 
Turbulence forte
LFBB SIGMET 7 VALID 220000/220400 LFPW
LFBB BORDEAUX FIR/UIR SEV TURB FCST WI N4600 E00300 - N4215 E00230 - N4230 E00115 - N4415 E00230 - N4615 E00245 - N4600 E00300 SFC/FL080 STNR NC=
Turbulence forte
LFBB SIGMET 6 VALID 212000/220000 LFPW
LFBB BORDEAUX FIR/UIR SEV TURB FCST WI N4615 E00300 - N4215 E00230 - N4230 E00130 - N4615 E00245 - N4615 E00300 SFC/FL090 STNR NC=



MET'MAP, la Météo Aéronautique d'un coup d'oeil ! - Copyright ORBIFLY Décembre 2007 - Disclaimer

ORBIFLY MET'MAP TEAM :

Programmation & Développement : Alexandra Zaïnal
Conception & Développement : Baudouin d'Aumeries
Co-Programmation & Développement : Marc-Olivier Méhu
Soutien technique & logistique : Manuel Goepfert

Contact : metmap@orbifly.com




SOURCES & CREDITS :

   NOAA